createdAt,value
2019-01-19T00:03:39.317Z,14.37
2019-01-19T00:08:52.785Z,20.37
2019-01-19T00:14:27.511Z,17.77
2019-01-19T00:20:01.829Z,12.43
2019-01-19T00:25:24.454Z,9.67
2019-01-19T00:31:03.870Z,10.43
2019-01-19T00:36:59.988Z,8.73
2019-01-19T00:42:43.982Z,8.50
2019-01-19T00:48:23.369Z,8.63
2019-01-19T00:53:38.418Z,8.37
2019-01-19T00:58:51.236Z,9.23
2019-01-19T01:04:41.263Z,9.77
2019-01-19T01:10:08.471Z,10.40
2019-01-19T01:15:39.612Z,10.27
2019-01-19T01:21:34.245Z,9.93
2019-01-19T01:27:15.041Z,9.83
2019-01-19T01:32:59.897Z,10.13
2019-01-19T01:38:32.271Z,9.67
2019-01-19T01:44:31.947Z,10.30
2019-01-19T01:49:46.767Z,10.30
2019-01-19T01:55:15.361Z,8.93
2019-01-19T02:00:55.647Z,9.77
2019-01-19T02:06:23.473Z,8.90
2019-01-19T02:12:09.589Z,9.97
2019-01-19T02:18:05.149Z,10.27
2019-01-19T02:23:48.361Z,10.20
2019-01-19T02:29:36.707Z,10.40
2019-01-19T02:35:25.612Z,8.87
2019-01-19T02:40:50.194Z,10.00
2019-01-19T02:46:23.064Z,10.53
2019-01-19T02:52:17.130Z,9.70
2019-01-19T02:58:06.604Z,9.97
2019-01-19T03:03:44.160Z,10.70
2019-01-19T03:09:18.295Z,9.67
2019-01-19T03:15:15.714Z,9.85
2019-01-19T03:20:58.518Z,11.00
2019-01-19T03:26:19.149Z,10.10
2019-01-19T03:32:02.596Z,9.80
2019-01-19T03:37:50.800Z,9.83
2019-01-19T03:43:31.735Z,9.80
2019-01-19T03:49:05.717Z,10.00
2019-01-19T03:54:50.900Z,10.40
2019-01-19T04:00:33.837Z,10.33
2019-01-19T04:06:00.643Z,10.05
2019-01-19T04:11:32.941Z,9.83
2019-01-19T04:17:02.793Z,10.17
2019-01-19T04:22:56.379Z,9.50
2019-01-19T04:28:05.183Z,9.67
2019-01-19T04:33:11.902Z,9.03
2019-01-19T04:38:18.843Z,9.33
2019-01-19T04:43:23.501Z,9.20
2019-01-19T04:48:30.871Z,9.70
2019-01-19T04:53:35.830Z,9.23
2019-01-19T04:58:40.747Z,11.43
2019-01-19T05:03:45.192Z,10.93
2019-01-19T05:08:49.880Z,12.10
2019-01-19T05:13:59.350Z,9.83
2019-01-19T05:19:04.681Z,9.27
2019-01-19T05:24:09.987Z,10.13
2019-01-19T05:29:18.671Z,11.10
2019-01-19T05:34:23.823Z,10.87
2019-01-19T05:39:28.560Z,11.00
2019-01-19T05:44:33.058Z,11.17
2019-01-19T05:49:38.467Z,10.27
2019-01-19T05:54:44.864Z,9.08
2019-01-19T05:59:50.527Z,10.77
2019-01-19T06:04:57.855Z,9.47
2019-01-19T06:10:02.593Z,10.40
2019-01-19T06:15:08.964Z,10.23
2019-01-19T06:20:15.689Z,9.20
2019-01-19T06:25:20.920Z,10.57
2019-01-19T06:30:28.937Z,11.38
2019-01-19T06:35:33.455Z,10.87
2019-01-19T06:40:38.487Z,11.43
2019-01-19T06:45:43.477Z,11.73
2019-01-19T06:50:47.953Z,11.95
2019-01-19T06:55:52.311Z,12.03
2019-01-19T07:00:56.667Z,12.47
2019-01-19T07:06:01.701Z,13.37
2019-01-19T07:11:06.283Z,11.90
2019-01-19T07:16:10.988Z,12.53
2019-01-19T07:21:15.781Z,11.70
2019-01-19T07:26:20.769Z,11.73
2019-01-19T07:31:28.156Z,10.15
2019-01-19T07:36:33.779Z,11.93
2019-01-19T07:41:38.595Z,12.80
2019-01-19T07:46:45.632Z,13.37
2019-01-19T07:51:52.678Z,13.63
2019-01-19T07:56:57.061Z,12.90
2019-01-19T08:02:02.573Z,12.40
2019-01-19T08:07:07.315Z,12.70
2019-01-19T08:12:12.851Z,12.57
2019-01-19T08:17:17.597Z,13.17
2019-01-19T08:22:23.264Z,11.97
2019-01-19T08:27:36.513Z,13.27
2019-01-19T08:32:42.354Z,13.20
2019-01-19T08:37:47.715Z,13.00
2019-01-19T08:43:06.079Z,12.77
2019-01-19T08:48:11.566Z,13.87
2019-01-19T08:53:16.853Z,12.80
2019-01-19T08:58:24.294Z,12.20
2019-01-19T09:03:30.380Z,12.57
2019-01-19T09:08:35.521Z,12.83
2019-01-19T09:13:46.662Z,13.03
2019-01-19T09:18:55.083Z,12.07
2019-01-19T09:24:04.391Z,10.08
2019-01-19T09:29:09.861Z,12.83
2019-01-19T09:34:14.256Z,12.30
2019-01-19T09:39:19.699Z,12.57
2019-01-19T09:44:26.607Z,11.47
2019-01-19T09:49:32.482Z,11.20
2019-01-19T09:54:44.840Z,11.50
2019-01-19T09:59:49.255Z,13.83
2019-01-19T10:04:54.417Z,21.20
2019-01-19T10:10:01.209Z,16.07
2019-01-19T10:15:09.972Z,9.23
2019-01-19T10:20:19.714Z,9.70
2019-01-19T10:25:24.471Z,11.10
2019-01-19T10:30:29.012Z,10.03
2019-01-19T10:35:34.568Z,11.00
2019-01-19T10:40:39.953Z,9.80
2019-01-19T10:45:45.879Z,11.07
2019-01-19T10:50:50.328Z,13.63
2019-01-19T10:55:56.219Z,12.03
2019-01-19T11:01:02.168Z,10.20
2019-01-19T11:06:07.448Z,11.20
2019-01-19T11:11:12.646Z,11.60
2019-01-19T11:16:18.326Z,9.73
2019-01-19T11:21:25.384Z,10.78
2019-01-19T11:26:30.229Z,10.83
2019-01-19T11:31:35.205Z,9.03
2019-01-19T11:36:41.901Z,8.33
2019-01-19T11:41:54.661Z,9.60
2019-01-19T11:46:59.417Z,10.27
2019-01-19T11:52:08.567Z,9.23
2019-01-19T11:57:13.644Z,8.10
2019-01-19T12:02:21.437Z,8.67
2019-01-19T12:07:26.472Z,8.03
2019-01-19T12:12:31.629Z,7.80
2019-01-19T12:17:36.611Z,8.07
2019-01-19T12:22:43.690Z,8.37
2019-01-19T12:27:49.176Z,7.43
2019-01-19T12:32:54.686Z,7.10
2019-01-19T12:37:59.630Z,7.37
2019-01-19T12:43:15.516Z,6.47
2019-01-19T12:48:20.288Z,7.50
2019-01-19T12:53:26.357Z,7.43
2019-01-19T12:58:31.254Z,7.67
2019-01-19T13:03:36.739Z,7.43
2019-01-19T13:08:41.486Z,8.57
2019-01-19T13:13:48.753Z,7.23
2019-01-19T13:19:18.572Z,7.77
2019-01-19T13:24:52.048Z,7.63
2019-01-19T13:30:38.287Z,8.30
2019-01-19T13:36:29.396Z,7.73
2019-01-19T13:42:12.650Z,7.15
2019-01-19T13:47:52.305Z,8.77
2019-01-19T13:53:38.064Z,9.27
2019-01-19T13:58:54.582Z,8.83
2019-01-19T14:04:45.370Z,9.10
2019-01-19T14:10:48.499Z,7.60
2019-01-19T14:16:25.074Z,8.67
2019-01-19T14:22:26.358Z,9.63
2019-01-19T14:27:56.779Z,8.90
2019-01-19T14:33:24.179Z,8.10
2019-01-19T14:39:18.496Z,8.63
2019-01-19T14:45:00.575Z,9.47
2019-01-19T14:50:42.632Z,8.60
2019-01-19T14:56:47.088Z,10.50
2019-01-19T15:02:37.563Z,12.20
2019-01-19T15:08:11.959Z,10.33
2019-01-19T15:13:34.916Z,10.83
2019-01-19T15:19:09.045Z,11.53
2019-01-19T15:24:45.576Z,13.47
2019-01-19T15:30:42.805Z,12.30
2019-01-19T15:36:15.967Z,13.33
2019-01-19T15:41:58.135Z,13.90
2019-01-19T15:47:35.331Z,21.90
2019-01-19T15:53:20.306Z,22.25
2019-01-19T15:59:12.299Z,20.67
2019-01-19T16:04:58.395Z,21.93
2019-01-19T16:10:46.617Z,15.07
2019-01-19T16:16:40.115Z,13.83
2019-01-19T16:22:41.960Z,19.70
2019-01-19T16:28:23.219Z,19.57
2019-01-19T16:34:18.848Z,16.07
2019-01-19T16:39:57.896Z,16.43
2019-01-19T16:45:41.660Z,14.83
2019-01-19T16:58:13.343Z,13.32
2019-01-19T17:03:50.742Z,17.70
2019-01-19T17:09:25.255Z,21.20
2019-01-19T17:15:21.090Z,18.65
2019-01-19T17:21:23.156Z,16.40
2019-01-19T17:27:09.061Z,14.20
2019-01-19T17:32:39.883Z,11.30
2019-01-19T17:38:00.974Z,12.23
2019-01-19T17:43:34.201Z,11.57
2019-01-19T17:48:57.800Z,12.53
2019-01-19T17:54:40.461Z,11.97
2019-01-19T18:00:21.460Z,12.13
2019-01-19T18:05:47.507Z,11.20
2019-01-19T18:11:21.830Z,12.27
2019-01-19T18:17:00.819Z,11.30
2019-01-19T18:22:36.599Z,13.20
2019-01-19T18:27:55.400Z,12.83
2019-01-19T18:33:26.585Z,11.83
2019-01-19T18:39:18.205Z,12.83
2019-01-19T18:44:52.532Z,12.83
2019-01-19T18:50:19.133Z,12.43
2019-01-19T18:56:02.585Z,11.43
2019-01-19T19:01:35.489Z,11.70
2019-01-19T19:07:20.246Z,12.75
2019-01-19T19:12:55.822Z,12.07
2019-01-19T19:18:39.427Z,13.07
2019-01-19T19:24:37.348Z,11.07
2019-01-19T19:30:11.517Z,11.83
2019-01-19T19:35:54.374Z,13.47
2019-01-19T19:41:32.594Z,12.47
2019-01-19T19:47:16.790Z,13.10
2019-01-19T19:52:27.917Z,14.77
2019-01-19T19:57:32.182Z,13.63
2019-01-19T20:02:36.812Z,13.73
2019-01-19T20:07:43.556Z,14.55
2019-01-19T20:12:48.997Z,13.80
2019-01-19T20:17:54.890Z,14.53
2019-01-19T20:23:07.470Z,14.05
2019-01-19T20:28:13.982Z,16.17
2019-01-19T20:33:18.556Z,14.10
2019-01-19T20:38:24.071Z,13.93
2019-01-19T20:43:29.877Z,14.40
2019-01-19T20:48:35.260Z,13.32
2019-01-19T20:53:40.069Z,13.30
2019-01-19T20:58:45.483Z,14.70
2019-01-19T21:03:50.612Z,15.70
2019-01-19T21:08:55.956Z,15.93
2019-01-19T21:14:00.882Z,16.50
2019-01-19T21:19:05.759Z,18.03
2019-01-19T21:24:10.968Z,16.60
2019-01-19T21:29:15.938Z,17.13
2019-01-19T21:34:21.367Z,16.47
2019-01-19T21:39:26.182Z,17.17
2019-01-19T21:44:31.111Z,21.53
2019-01-19T21:49:39.827Z,19.80
2019-01-19T21:54:44.967Z,16.62
2019-01-19T21:59:49.761Z,15.80
2019-01-19T22:04:54.699Z,16.43
2019-01-19T22:10:00.622Z,17.33
2019-01-19T22:15:10.981Z,18.13
2019-01-19T22:20:17.752Z,16.47
2019-01-19T22:25:23.305Z,16.77
2019-01-19T22:30:28.795Z,15.60
2019-01-19T22:35:34.060Z,15.33
2019-01-19T22:40:39.312Z,15.28
2019-01-19T22:45:44.595Z,14.57
2019-01-19T22:50:49.738Z,14.50
2019-01-19T22:55:55.481Z,13.67
2019-01-19T23:01:39.317Z,13.83
2019-01-19T23:06:44.956Z,15.25
2019-01-19T23:11:50.387Z,16.63
2019-01-19T23:16:55.358Z,16.73
2019-01-19T23:22:01.388Z,15.90
2019-01-19T23:27:07.200Z,15.53
2019-01-19T23:32:11.971Z,15.53
2019-01-19T23:37:17.664Z,15.97
2019-01-19T23:42:22.103Z,14.90
2019-01-19T23:47:27.525Z,14.47
2019-01-19T23:52:35.230Z,15.67
2019-01-19T23:57:40.301Z,15.27
